createdAt,value
2024-05-09T00:00:57.948Z,7.40
2024-05-09T00:01:57.929Z,7.20
2024-05-09T00:02:57.880Z,7.90
2024-05-09T00:03:57.917Z,9.40
2024-05-09T00:04:57.949Z,7.90
2024-05-09T00:05:57.889Z,9.50
2024-05-09T00:06:57.872Z,6.80
2024-05-09T00:07:57.859Z,10.10
2024-05-09T00:08:57.796Z,7.70
2024-05-09T00:09:57.859Z,7.60
2024-05-09T00:10:57.895Z,7.80
2024-05-09T00:11:57.944Z,6.90
2024-05-09T00:12:57.777Z,7.20
2024-05-09T00:13:57.774Z,6.60
2024-05-09T00:14:57.917Z,7.70
2024-05-09T00:15:58.203Z,6.40
2024-05-09T00:16:57.696Z,7.60
2024-05-09T00:17:57.780Z,8.30
2024-05-09T00:18:57.890Z,8.00
2024-05-09T00:19:57.678Z,7.90
2024-05-09T00:20:57.833Z,8.30
2024-05-09T00:21:57.653Z,7.30
2024-05-09T00:22:57.687Z,7.50
2024-05-09T00:23:57.613Z,11.00
2024-05-09T00:24:58.502Z,12.80
2024-05-09T00:25:57.616Z,8.50
2024-05-09T00:26:57.597Z,9.10
2024-05-09T00:27:57.560Z,8.30
2024-05-09T00:28:57.609Z,10.20
2024-05-09T00:29:57.531Z,9.70
2024-05-09T00:30:57.507Z,10.00
2024-05-09T00:31:57.648Z,9.30
2024-05-09T00:32:57.703Z,14.70
2024-05-09T00:33:57.961Z,8.20
2024-05-09T00:34:57.620Z,8.40
2024-05-09T00:35:57.490Z,8.40
2024-05-09T00:36:57.465Z,8.20
2024-05-09T00:37:57.504Z,7.90
2024-05-09T00:38:57.443Z,9.40
2024-05-09T00:39:57.412Z,12.70
2024-05-09T00:40:57.468Z,8.40
2024-05-09T00:41:57.400Z,10.20
2024-05-09T00:42:57.396Z,9.40
2024-05-09T00:43:57.412Z,10.30
2024-05-09T00:44:57.375Z,9.20
2024-05-09T00:45:57.333Z,7.00
2024-05-09T00:46:57.327Z,8.10
2024-05-09T00:47:57.604Z,7.00
2024-05-09T00:48:57.482Z,8.40
2024-05-09T00:49:57.302Z,7.80
2024-05-09T00:50:57.360Z,9.00
2024-05-09T00:51:57.246Z,6.70
2024-05-09T00:52:57.252Z,7.90
2024-05-09T00:53:57.266Z,8.10
2024-05-09T00:54:57.202Z,6.80
2024-05-09T00:55:57.802Z,8.50
2024-05-09T00:56:57.199Z,13.60
2024-05-09T00:57:57.180Z,21.20
2024-05-09T00:58:57.162Z,24.60
2024-05-09T00:59:57.174Z,62.60
2024-05-09T01:00:57.176Z,18.10
2024-05-09T01:01:57.193Z,11.60
2024-05-09T01:02:57.170Z,49.00
2024-05-09T01:03:57.265Z,31.90
2024-05-09T01:04:57.167Z,32.40
2024-05-09T01:05:57.096Z,66.60
2024-05-09T01:06:57.048Z,62.60
2024-05-09T01:07:57.160Z,15.90
2024-05-09T01:08:57.022Z,38.70
2024-05-09T01:09:57.031Z,22.60
2024-05-09T01:10:57.061Z,16.80
2024-05-09T01:11:57.100Z,25.20
2024-05-09T01:12:57.144Z,6.70
2024-05-09T01:13:57.016Z,7.50
2024-05-09T01:14:56.983Z,13.70
2024-05-09T01:15:56.932Z,32.40
2024-05-09T01:16:56.960Z,41.10
2024-05-09T01:17:57.452Z,33.90
2024-05-09T01:18:57.002Z,6.70
2024-05-09T01:19:56.991Z,17.10
2024-05-09T01:20:56.950Z,9.80
2024-05-09T01:21:56.960Z,9.50
2024-05-09T01:22:56.868Z,10.10
2024-05-09T01:23:57.791Z,8.60
2024-05-09T01:24:56.821Z,7.80
2024-05-09T01:25:58.355Z,9.40
2024-05-09T01:26:56.789Z,7.90
2024-05-09T01:27:56.770Z,8.60
2024-05-09T01:28:56.799Z,9.50
2024-05-09T01:29:56.964Z,8.40
2024-05-09T01:30:56.770Z,6.20
2024-05-09T01:31:56.786Z,8.80
2024-05-09T01:32:56.920Z,6.40
2024-05-09T01:33:56.814Z,7.00
2024-05-09T01:34:56.796Z,5.50
2024-05-09T01:35:56.694Z,5.80
2024-05-09T01:36:56.677Z,8.20
2024-05-09T01:37:56.748Z,6.10
2024-05-09T01:38:56.663Z,7.90
2024-05-09T01:39:57.493Z,7.70
2024-05-09T01:40:56.730Z,7.10
2024-05-09T01:41:56.636Z,8.40
2024-05-09T01:42:56.591Z,8.70
2024-05-09T01:43:56.655Z,5.50
2024-05-09T01:44:56.561Z,6.40
2024-05-09T01:45:56.571Z,5.50
2024-05-09T01:46:56.568Z,6.20
2024-05-09T01:47:56.780Z,4.60
2024-05-09T01:48:56.646Z,4.80
2024-05-09T01:49:56.564Z,6.60
2024-05-09T01:50:56.510Z,5.50
2024-05-09T01:51:56.455Z,10.80
2024-05-09T01:52:56.554Z,5.20
2024-05-09T01:53:56.447Z,5.10
2024-05-09T01:54:56.452Z,6.50
2024-05-09T01:55:56.437Z,6.30
2024-05-09T01:56:56.407Z,6.50
2024-05-09T01:57:56.388Z,6.80
2024-05-09T01:58:56.426Z,7.30
2024-05-09T01:59:56.390Z,4.30
2024-05-09T02:00:56.390Z,7.10
2024-05-09T02:01:57.747Z,12.20
2024-05-09T02:02:56.534Z,9.90
2024-05-09T02:03:56.497Z,11.30
2024-05-09T02:04:56.471Z,53.30
2024-05-09T02:05:56.405Z,58.20
2024-05-09T02:06:57.721Z,47.00
2024-05-09T02:07:56.348Z,33.90
2024-05-09T02:08:56.263Z,20.70
2024-05-09T02:09:56.219Z,31.50
2024-05-09T02:10:56.338Z,53.70
2024-05-09T02:11:56.327Z,29.60
2024-05-09T02:12:56.176Z,18.40
2024-05-09T02:13:56.172Z,16.00
2024-05-09T02:14:56.220Z,17.60
2024-05-09T02:15:56.151Z,41.40
2024-05-09T02:16:56.233Z,37.80
2024-05-09T02:17:56.321Z,42.20
2024-05-09T02:18:56.193Z,33.40
2024-05-09T02:19:56.122Z,27.10
2024-05-09T02:20:56.196Z,29.40
2024-05-09T02:21:56.076Z,19.60
2024-05-09T02:22:56.075Z,9.70
2024-05-09T02:23:56.058Z,24.10
2024-05-09T02:24:56.052Z,29.50
2024-05-09T02:25:56.115Z,10.10
2024-05-09T02:26:56.023Z,16.70
2024-05-09T02:27:56.001Z,35.10
2024-05-09T02:28:56.105Z,58.60
2024-05-09T02:29:56.022Z,23.40
2024-05-09T02:30:55.998Z,17.90
2024-05-09T02:31:56.018Z,16.50
2024-05-09T02:32:56.085Z,16.10
2024-05-09T02:33:56.139Z,10.50
2024-05-09T02:34:56.011Z,18.30
2024-05-09T02:35:55.941Z,21.60
2024-05-09T02:36:55.901Z,30.60
2024-05-09T02:37:55.971Z,11.40
2024-05-09T02:38:55.888Z,41.30
2024-05-09T02:39:55.847Z,30.40
2024-05-09T02:40:55.875Z,35.60
2024-05-09T02:41:55.813Z,32.50
2024-05-09T02:42:55.843Z,24.50
2024-05-09T02:43:55.871Z,26.50
2024-05-09T02:44:55.787Z,20.00
2024-05-09T02:45:55.766Z,19.50
2024-05-09T02:46:55.797Z,44.40
2024-05-09T02:47:55.952Z,47.20
2024-05-09T02:48:55.844Z,56.20
2024-05-09T02:49:55.730Z,62.20
2024-05-09T02:50:55.754Z,27.70
2024-05-09T02:51:55.738Z,13.40
2024-05-09T02:52:55.813Z,12.50
2024-05-09T02:53:55.820Z,20.10
2024-05-09T02:54:55.730Z,31.90
2024-05-09T02:55:55.758Z,30.20
2024-05-09T02:56:55.643Z,18.40
2024-05-09T02:57:55.635Z,14.40
2024-05-09T02:58:55.712Z,22.60
2024-05-09T02:59:55.683Z,27.70
2024-05-09T03:00:55.633Z,19.10
2024-05-09T03:01:55.650Z,29.00
2024-05-09T03:02:55.669Z,10.30
2024-05-09T03:03:55.820Z,28.10
2024-05-09T03:04:55.732Z,20.70
2024-05-09T03:05:55.533Z,24.50
2024-05-09T03:06:55.647Z,32.70
2024-05-09T03:07:55.565Z,29.10
2024-05-09T03:08:55.486Z,24.00
2024-05-09T03:09:55.494Z,35.70
2024-05-09T03:10:55.588Z,68.70
2024-05-09T03:11:55.636Z,36.80
2024-05-09T03:12:55.417Z,12.20
2024-05-09T03:13:55.471Z,33.70
2024-05-09T03:14:55.405Z,38.90
2024-05-09T03:15:55.413Z,14.80
2024-05-09T03:16:55.542Z,39.20
2024-05-09T03:17:55.579Z,18.80
2024-05-09T03:18:55.586Z,22.60
2024-05-09T03:19:55.374Z,33.60
2024-05-09T03:20:55.444Z,24.60
2024-05-09T03:21:55.302Z,28.40
2024-05-09T03:22:56.928Z,25.20
2024-05-09T03:23:55.378Z,20.60
2024-05-09T03:24:55.261Z,33.90
2024-05-09T03:25:55.303Z,16.60
2024-05-09T03:26:55.250Z,17.60
2024-05-09T03:27:55.256Z,26.20
2024-05-09T03:28:55.287Z,23.30
2024-05-09T03:29:55.217Z,29.80
2024-05-09T03:30:55.186Z,17.00
2024-05-09T03:31:55.233Z,16.40
2024-05-09T03:32:55.318Z,22.90
2024-05-09T03:33:55.255Z,15.80
2024-05-09T03:34:55.178Z,23.00
2024-05-09T03:35:55.156Z,21.30
2024-05-09T03:36:55.112Z,16.40
2024-05-09T03:37:55.189Z,9.10
2024-05-09T03:38:55.097Z,34.80
2024-05-09T03:39:55.097Z,18.80
2024-05-09T03:40:55.099Z,30.50
2024-05-09T03:41:55.040Z,14.50
2024-05-09T03:42:55.038Z,24.40
2024-05-09T03:43:55.060Z,37.50
2024-05-09T03:44:55.013Z,35.80
2024-05-09T03:45:55.048Z,26.90
2024-05-09T03:46:55.104Z,36.10
2024-05-09T03:47:55.280Z,29.40
2024-05-09T03:48:55.109Z,41.20
2024-05-09T03:49:54.989Z,20.70
2024-05-09T03:50:55.024Z,14.50
2024-05-09T03:51:54.924Z,23.00
2024-05-09T03:52:54.955Z,33.00
2024-05-09T03:53:54.930Z,28.90
2024-05-09T03:54:54.877Z,46.10
2024-05-09T03:55:54.914Z,20.50
2024-05-09T03:56:54.867Z,53.00
2024-05-09T03:57:54.839Z,27.30
2024-05-09T03:58:54.901Z,34.70
2024-05-09T03:59:54.816Z,17.60
2024-05-09T04:00:54.837Z,25.50
2024-05-09T04:01:54.891Z,15.60
2024-05-09T04:02:54.885Z,35.20
2024-05-09T04:03:54.861Z,18.60
2024-05-09T04:04:54.863Z,13.40
2024-05-09T04:05:54.748Z,29.00
2024-05-09T04:06:54.781Z,32.50
2024-05-09T04:07:54.806Z,30.90
2024-05-09T04:08:54.761Z,39.20
2024-05-09T04:09:54.710Z,28.30
2024-05-09T04:10:54.750Z,61.90
2024-05-09T04:11:54.889Z,38.50
2024-05-09T04:12:54.663Z,22.80
2024-05-09T04:13:54.670Z,42.70
2024-05-09T04:14:54.615Z,25.90
2024-05-09T04:15:54.609Z,54.20
2024-05-09T04:16:54.732Z,50.50
2024-05-09T04:17:54.811Z,33.70
2024-05-09T04:18:54.683Z,57.00
2024-05-09T04:19:54.655Z,90.90
2024-05-09T04:20:54.576Z,71.60
2024-05-09T04:21:54.531Z,62.40
2024-05-09T04:22:54.602Z,44.60
2024-05-09T04:23:54.503Z,59.40
2024-05-09T04:24:54.513Z,117.30
2024-05-09T04:25:54.533Z,105.50
2024-05-09T04:26:54.474Z,74.30
2024-05-09T04:27:54.520Z,48.60
2024-05-09T04:28:54.461Z,69.50
2024-05-09T04:29:54.438Z,48.10
2024-05-09T04:30:54.438Z,101.90
2024-05-09T04:31:54.566Z,70.20
2024-05-09T04:32:54.735Z,89.60
2024-05-09T04:33:54.579Z,65.00
2024-05-09T04:34:54.394Z,28.20
2024-05-09T04:35:54.354Z,71.50
2024-05-09T04:36:54.342Z,29.00
2024-05-09T04:37:54.392Z,76.50
2024-05-09T04:38:54.315Z,50.40
2024-05-09T04:39:54.346Z,55.80
2024-05-09T04:40:54.334Z,48.90
2024-05-09T04:41:54.271Z,130.70
2024-05-09T04:42:54.273Z,114.80
2024-05-09T04:43:54.315Z,48.40
2024-05-09T04:44:56.502Z,82.10
2024-05-09T04:45:54.237Z,72.90
2024-05-09T04:46:54.256Z,49.60
2024-05-09T04:47:54.346Z,132.90
2024-05-09T04:48:54.318Z,46.80
2024-05-09T04:49:54.576Z,146.10
2024-05-09T04:50:54.251Z,77.40
2024-05-09T04:51:54.209Z,69.30
2024-05-09T04:52:54.396Z,37.20
2024-05-09T04:53:54.158Z,64.10
2024-05-09T04:54:57.554Z,72.00
2024-05-09T04:55:54.291Z,50.60
2024-05-09T04:56:54.144Z,28.80
2024-05-09T04:57:54.118Z,62.40
2024-05-09T04:58:54.212Z,35.30
2024-05-09T04:59:54.260Z,49.80
2024-05-09T05:00:54.219Z,33.10
2024-05-09T05:01:54.383Z,55.10
2024-05-09T05:02:54.320Z,52.70
2024-05-09T05:03:55.872Z,83.40
2024-05-09T05:04:54.125Z,172.50
2024-05-09T05:05:54.040Z,65.00
2024-05-09T05:06:54.003Z,46.20
2024-05-09T05:07:53.970Z,35.00
2024-05-09T05:08:53.917Z,31.90
2024-05-09T05:09:53.955Z,126.40
2024-05-09T05:10:54.041Z,93.50
2024-05-09T05:11:53.981Z,89.90
2024-05-09T05:12:53.923Z,73.90
2024-05-09T05:13:53.930Z,124.00
2024-05-09T05:14:53.856Z,151.20
2024-05-09T05:15:53.894Z,198.10
2024-05-09T05:16:53.885Z,119.90
2024-05-09T05:17:53.950Z,85.00
2024-05-09T05:18:54.910Z,99.50
2024-05-09T05:19:53.917Z,148.40
2024-05-09T05:20:53.829Z,78.00
2024-05-09T05:21:53.853Z,124.60
2024-05-09T05:22:53.796Z,107.90
2024-05-09T05:23:53.788Z,122.80
2024-05-09T05:24:53.744Z,136.80
2024-05-09T05:25:54.425Z,49.30
2024-05-09T05:26:53.713Z,105.20
2024-05-09T05:27:53.756Z,114.80
2024-05-09T05:28:53.775Z,98.10
2024-05-09T05:29:53.654Z,90.20
2024-05-09T05:30:53.658Z,71.50
2024-05-09T05:31:53.709Z,103.80
2024-05-09T05:32:53.737Z,99.40
2024-05-09T05:33:53.764Z,81.10
2024-05-09T05:34:53.636Z,100.70
2024-05-09T05:35:53.578Z,49.70
2024-05-09T05:36:53.563Z,107.60
2024-05-09T05:37:53.567Z,205.70
2024-05-09T05:38:53.560Z,269.90
2024-05-09T05:39:53.542Z,127.70
2024-05-09T05:40:53.582Z,152.90
2024-05-09T05:41:53.513Z,126.90
2024-05-09T05:42:53.504Z,35.40
2024-05-09T05:43:53.543Z,52.70
2024-05-09T05:44:53.487Z,69.90
2024-05-09T05:45:53.478Z,95.40
2024-05-09T05:46:53.518Z,91.60
2024-05-09T05:47:53.564Z,92.90
2024-05-09T05:48:53.605Z,84.50
2024-05-09T05:49:53.530Z,59.80
2024-05-09T05:50:53.492Z,64.80
2024-05-09T05:51:53.383Z,64.80
2024-05-09T05:52:53.385Z,86.30
2024-05-09T05:53:53.359Z,87.30
2024-05-09T05:54:53.375Z,81.70
2024-05-09T05:55:53.403Z,87.10
2024-05-09T05:56:53.338Z,106.20
2024-05-09T05:57:53.316Z,71.40
2024-05-09T05:58:53.319Z,60.40
2024-05-09T05:59:53.316Z,72.50
2024-05-09T06:00:53.502Z,72.10
2024-05-09T06:01:53.332Z,98.90
2024-05-09T06:02:53.415Z,76.60
2024-05-09T06:03:53.448Z,91.40
2024-05-09T06:04:53.336Z,42.90
2024-05-09T06:05:53.284Z,50.80
2024-05-09T06:06:53.324Z,24.10
2024-05-09T06:07:53.257Z,42.90
2024-05-09T06:08:53.293Z,29.70
2024-05-09T06:09:53.210Z,62.70
2024-05-09T06:10:53.253Z,83.30
2024-05-09T06:11:53.264Z,53.10
2024-05-09T06:12:53.155Z,75.30
2024-05-09T06:13:53.194Z,46.20
2024-05-09T06:14:53.091Z,55.10
2024-05-09T06:15:53.122Z,35.30
2024-05-09T06:16:54.697Z,44.30
2024-05-09T06:17:53.250Z,19.80
2024-05-09T06:18:53.298Z,41.10
2024-05-09T06:19:53.349Z,49.20
2024-05-09T06:20:53.071Z,46.60
2024-05-09T06:21:53.017Z,88.20
2024-05-09T06:22:53.157Z,39.90
2024-05-09T06:23:52.991Z,36.30
2024-05-09T06:24:52.975Z,25.80
2024-05-09T06:25:52.984Z,29.10
2024-05-09T06:26:52.952Z,23.20
2024-05-09T06:27:53.021Z,17.40
2024-05-09T06:28:52.994Z,19.00
2024-05-09T06:29:52.896Z,14.30
2024-05-09T06:30:52.907Z,19.00
2024-05-09T06:31:52.864Z,20.30
2024-05-09T06:32:53.712Z,14.40
2024-05-09T06:33:53.047Z,18.70
2024-05-09T06:34:53.023Z,22.60
2024-05-09T06:35:53.243Z,15.40
2024-05-09T06:36:52.856Z,14.90
2024-05-09T06:37:52.878Z,17.20
2024-05-09T06:38:52.849Z,14.60
2024-05-09T06:39:52.753Z,17.30
2024-05-09T06:40:52.795Z,12.60
2024-05-09T06:41:52.731Z,14.20
2024-05-09T06:42:52.746Z,17.40
2024-05-09T06:43:52.800Z,14.00
2024-05-09T06:44:52.945Z,16.20
2024-05-09T06:45:52.961Z,22.80
2024-05-09T06:46:53.626Z,16.10
2024-05-09T06:47:52.873Z,17.10
2024-05-09T06:48:53.226Z,17.50
2024-05-09T06:49:52.834Z,15.20
2024-05-09T06:50:52.807Z,19.40
2024-05-09T06:51:52.682Z,17.30
2024-05-09T06:52:52.716Z,16.30
2024-05-09T06:53:52.981Z,16.90
2024-05-09T06:54:52.611Z,17.50
2024-05-09T06:55:52.786Z,18.10
2024-05-09T06:56:52.693Z,18.50
2024-05-09T06:57:52.624Z,16.80
2024-05-09T06:58:52.598Z,17.00
2024-05-09T06:59:52.584Z,14.80
2024-05-09T07:00:52.704Z,20.70
2024-05-09T07:01:52.542Z,22.40
2024-05-09T07:02:52.630Z,17.20
2024-05-09T07:03:52.677Z,17.70
2024-05-09T07:04:52.941Z,15.50
2024-05-09T07:05:52.612Z,16.30
2024-05-09T07:06:52.432Z,17.90
2024-05-09T07:07:53.355Z,18.60
2024-05-09T07:08:52.722Z,17.00
2024-05-09T07:09:52.437Z,16.70
2024-05-09T07:10:52.600Z,18.00
2024-05-09T07:11:52.471Z,15.40
2024-05-09T07:12:52.343Z,17.30
2024-05-09T07:13:52.420Z,15.90
2024-05-09T07:14:52.506Z,14.70
2024-05-09T07:15:52.339Z,15.10
2024-05-09T07:16:52.413Z,14.90
2024-05-09T07:17:52.645Z,17.40
2024-05-09T07:18:52.698Z,18.20
2024-05-09T07:19:52.488Z,20.60
2024-05-09T07:20:52.318Z,18.00
2024-05-09T07:21:52.374Z,15.20
2024-05-09T07:22:52.352Z,20.40
2024-05-09T07:23:52.397Z,17.70
2024-05-09T07:24:52.507Z,16.90
2024-05-09T07:25:52.294Z,14.20
2024-05-09T07:26:52.375Z,19.50
2024-05-09T07:27:52.309Z,17.60
2024-05-09T07:28:52.350Z,16.80
2024-05-09T07:29:52.805Z,19.40
2024-05-09T07:30:52.110Z,18.00
2024-05-09T07:31:52.156Z,17.50
2024-05-09T07:32:52.201Z,16.40
2024-05-09T07:33:52.154Z,15.50
2024-05-09T07:34:52.095Z,16.20
2024-05-09T07:35:52.217Z,17.20
2024-05-09T07:36:52.016Z,16.50
2024-05-09T07:37:52.062Z,17.80
2024-05-09T07:38:52.062Z,15.60
2024-05-09T07:39:52.022Z,17.50
2024-05-09T07:40:52.204Z,19.30
2024-05-09T07:41:52.748Z,13.10
2024-05-09T07:42:52.745Z,17.40
2024-05-09T07:43:52.818Z,19.70
2024-05-09T07:44:52.008Z,16.70
2024-05-09T07:45:54.539Z,17.20
2024-05-09T07:48:13.594Z,15.50
2024-05-09T07:51:32.710Z,14.70
2024-05-09T07:53:37.347Z,15.80
2024-05-09T07:53:51.965Z,14.70
2024-05-09T07:54:24.196Z,14.50
2024-05-09T07:55:24.080Z,12.20
2024-05-09T07:56:24.910Z,15.90
2024-05-09T07:57:23.979Z,17.30
2024-05-09T07:58:24.713Z,19.20
2024-05-09T07:59:23.996Z,14.10
2024-05-09T08:00:30.896Z,16.40
2024-05-09T08:01:24.002Z,13.20
2024-05-09T08:02:24.041Z,14.30
2024-05-09T08:03:24.306Z,12.90
2024-05-09T08:04:26.584Z,13.30
2024-05-09T08:05:24.300Z,14.60
2024-05-09T08:06:23.977Z,12.10
2024-05-09T08:07:24.002Z,13.60
2024-05-09T08:08:23.824Z,12.10
2024-05-09T08:09:23.811Z,11.80
2024-05-09T08:10:28.556Z,14.50
2024-05-09T08:11:24.145Z,13.10
2024-05-09T08:12:23.962Z,13.90
2024-05-09T08:13:23.819Z,12.00
2024-05-09T08:14:23.773Z,11.20
2024-05-09T08:15:23.927Z,12.00
2024-05-09T08:16:23.988Z,14.20
2024-05-09T08:17:23.910Z,10.70
2024-05-09T08:18:23.887Z,8.60
2024-05-09T08:19:23.900Z,14.10
2024-05-09T08:20:30.957Z,10.50
2024-05-09T08:21:23.721Z,11.10
2024-05-09T08:22:23.888Z,9.60
2024-05-09T08:23:23.783Z,8.20
2024-05-09T08:24:23.653Z,10.40
2024-05-09T08:25:23.695Z,12.80
2024-05-09T08:26:23.662Z,9.80
2024-05-09T08:27:23.730Z,9.90
2024-05-09T08:28:23.653Z,13.30
2024-05-09T08:29:23.826Z,11.50
2024-05-09T08:30:30.138Z,8.10
2024-05-09T08:31:23.641Z,8.10
2024-05-09T08:32:23.675Z,7.10
2024-05-09T08:33:23.770Z,8.80
2024-05-09T08:34:23.756Z,6.40
2024-05-09T08:35:23.778Z,8.60
2024-05-09T08:36:23.542Z,9.60
2024-05-09T08:37:27.650Z,8.80
2024-05-09T08:38:23.648Z,10.70
2024-05-09T08:39:23.749Z,8.50
2024-05-09T08:40:30.883Z,8.70
2024-05-09T08:41:23.436Z,9.60
2024-05-09T08:42:23.609Z,10.50
2024-05-09T08:43:23.746Z,8.10
2024-05-09T08:44:23.471Z,9.30
2024-05-09T08:45:23.418Z,8.40
2024-05-09T08:46:23.439Z,11.00
2024-05-09T08:47:23.418Z,10.70
2024-05-09T08:48:23.528Z,8.40
2024-05-09T08:49:23.485Z,17.30
2024-05-09T08:50:32.154Z,10.60
2024-05-09T08:51:23.314Z,8.80
2024-05-09T08:52:23.292Z,9.00
2024-05-09T08:53:23.339Z,9.70
2024-05-09T08:54:23.266Z,14.90
2024-05-09T08:55:23.836Z,7.10
2024-05-09T08:56:23.333Z,8.00
2024-05-09T08:57:23.211Z,10.20
2024-05-09T08:58:23.303Z,6.50
2024-05-09T08:59:23.734Z,9.20
2024-05-09T09:00:33.446Z,10.20
2024-05-09T09:01:23.411Z,9.60
2024-05-09T09:02:23.467Z,12.00
2024-05-09T09:03:23.189Z,9.10
2024-05-09T09:04:23.473Z,6.30
2024-05-09T09:05:23.369Z,10.40
2024-05-09T09:06:23.279Z,8.50
2024-05-09T09:07:23.217Z,10.60
2024-05-09T09:08:23.157Z,9.00
2024-05-09T09:09:22.994Z,10.40
2024-05-09T09:10:29.743Z,9.30
2024-05-09T09:11:23.220Z,6.40
2024-05-09T09:12:23.057Z,12.00
2024-05-09T09:13:23.156Z,8.80
2024-05-09T09:14:22.955Z,6.90
2024-05-09T09:15:23.332Z,8.80
2024-05-09T09:16:23.295Z,7.40
2024-05-09T09:17:23.280Z,5.90
2024-05-09T09:18:23.133Z,9.50
2024-05-09T09:19:23.207Z,6.10
2024-05-09T09:20:28.708Z,6.10
2024-05-09T09:21:22.968Z,5.70
2024-05-09T09:22:22.946Z,8.00
2024-05-09T09:23:22.950Z,7.90
2024-05-09T09:24:22.877Z,7.60
2024-05-09T09:25:22.962Z,13.10
2024-05-09T09:26:22.829Z,7.60
2024-05-09T09:27:22.931Z,6.80
2024-05-09T09:28:23.062Z,6.40
2024-05-09T09:29:22.803Z,8.50
2024-05-09T09:30:34.451Z,7.40
2024-05-09T09:31:22.945Z,6.70
2024-05-09T09:32:22.900Z,6.70
2024-05-09T09:33:23.030Z,7.50
2024-05-09T09:34:22.930Z,6.00
2024-05-09T09:35:23.053Z,7.10
2024-05-09T09:36:22.728Z,5.40
2024-05-09T09:37:22.772Z,5.80
2024-05-09T09:38:22.642Z,6.90
2024-05-09T09:39:22.614Z,6.20
2024-05-09T09:40:29.295Z,5.40
2024-05-09T09:41:22.614Z,10.30
2024-05-09T09:42:22.589Z,5.10
2024-05-09T09:43:23.253Z,8.90
2024-05-09T09:44:22.536Z,5.70
2024-05-09T09:45:22.591Z,7.80
2024-05-09T09:46:22.523Z,8.30
2024-05-09T09:47:22.533Z,8.30
2024-05-09T09:48:23.302Z,8.80
2024-05-09T09:49:22.507Z,6.80
2024-05-09T09:50:27.948Z,7.10
2024-05-09T09:51:22.487Z,7.20
2024-05-09T09:52:22.555Z,12.30
2024-05-09T09:53:22.452Z,6.40
2024-05-09T09:54:22.701Z,5.80
2024-05-09T09:55:22.539Z,7.80
2024-05-09T09:56:22.586Z,6.50
2024-05-09T09:57:22.445Z,6.10
2024-05-09T09:58:22.699Z,6.80
2024-05-09T09:59:22.560Z,7.20
2024-05-09T10:00:27.402Z,6.00
2024-05-09T10:01:22.799Z,6.60
2024-05-09T10:02:22.782Z,8.00
2024-05-09T10:03:22.529Z,7.90
2024-05-09T10:04:22.496Z,6.40
2024-05-09T10:05:22.613Z,7.80
2024-05-09T10:06:22.492Z,6.90
2024-05-09T10:07:22.358Z,6.30
2024-05-09T10:08:22.268Z,7.70
2024-05-09T10:09:22.254Z,5.20
2024-05-09T10:10:29.900Z,7.80
2024-05-09T10:11:22.503Z,6.80
2024-05-09T10:12:22.298Z,6.90
2024-05-09T10:13:22.378Z,5.80
2024-05-09T10:14:22.405Z,5.70
2024-05-09T10:15:22.261Z,5.80
2024-05-09T10:16:22.393Z,4.00
2024-05-09T10:17:22.141Z,7.90
2024-05-09T10:18:22.163Z,3.60
2024-05-09T10:19:22.131Z,4.70
2024-05-09T10:20:27.745Z,4.50
2024-05-09T10:21:22.087Z,4.70
2024-05-09T10:22:22.116Z,6.80
2024-05-09T10:23:22.132Z,4.60
2024-05-09T10:24:22.049Z,2.90
2024-05-09T10:25:22.242Z,3.40
2024-05-09T10:26:22.102Z,5.40
2024-05-09T10:27:21.979Z,8.00
2024-05-09T10:28:21.976Z,3.30
2024-05-09T10:29:21.964Z,4.00
2024-05-09T10:31:21.982Z,3.70
2024-05-09T10:32:21.943Z,3.90
2024-05-09T10:33:21.981Z,4.80
2024-05-09T10:34:22.250Z,7.50
2024-05-09T10:35:21.880Z,3.90
2024-05-09T10:36:21.882Z,4.50
2024-05-09T10:37:21.952Z,5.40
2024-05-09T10:38:21.824Z,2.60
2024-05-09T10:39:21.850Z,2.50
2024-05-09T10:40:26.610Z,3.30
2024-05-09T10:41:21.866Z,3.30
2024-05-09T10:42:21.893Z,6.00
2024-05-09T10:43:21.887Z,5.10
2024-05-09T10:44:21.778Z,2.70
2024-05-09T10:45:21.735Z,2.50
2024-05-09T10:46:22.021Z,4.40
2024-05-09T10:47:21.784Z,2.80
2024-05-09T10:48:21.783Z,2.60
2024-05-09T10:49:21.774Z,2.50
2024-05-09T10:50:28.183Z,2.90
2024-05-09T10:51:21.700Z,2.20
2024-05-09T10:52:21.841Z,4.00
2024-05-09T10:53:21.650Z,3.20
2024-05-09T10:54:21.642Z,3.30
2024-05-09T10:55:22.070Z,5.00
2024-05-09T10:56:21.618Z,2.80
2024-05-09T10:57:21.576Z,6.20
2024-05-09T10:58:21.639Z,3.10
2024-05-09T10:59:21.581Z,3.00
2024-05-09T11:00:27.740Z,3.00
2024-05-09T11:01:21.678Z,4.60
2024-05-09T11:02:21.632Z,2.80
2024-05-09T11:03:21.626Z,2.60
2024-05-09T11:04:21.776Z,2.90
2024-05-09T11:05:21.884Z,2.10
2024-05-09T11:06:21.481Z,3.10
2024-05-09T11:07:21.621Z,2.90
2024-05-09T11:08:21.451Z,3.60
2024-05-09T11:09:21.453Z,5.00
2024-05-09T11:10:27.736Z,1.20
2024-05-09T11:11:21.879Z,3.50
2024-05-09T11:12:23.536Z,1.80
2024-05-09T11:13:21.430Z,3.30
2024-05-09T11:14:21.403Z,1.70
2024-05-09T11:15:21.356Z,1.70
2024-05-09T11:16:21.785Z,1.60
2024-05-09T11:17:21.489Z,3.60
2024-05-09T11:18:24.639Z,4.40
2024-05-09T11:19:21.446Z,3.50
2024-05-09T11:20:29.086Z,2.10
2024-05-09T11:21:21.428Z,2.20
2024-05-09T11:22:21.365Z,2.00
2024-05-09T11:23:21.249Z,2.50
2024-05-09T11:24:21.295Z,1.80
2024-05-09T11:25:21.263Z,2.20
2024-05-09T11:26:21.233Z,3.10
2024-05-09T11:27:21.207Z,3.80
2024-05-09T11:28:21.272Z,3.90
2024-05-09T11:29:21.241Z,4.70
2024-05-09T11:30:26.996Z,2.20
2024-05-09T11:31:21.488Z,2.40
2024-05-09T11:32:21.190Z,2.30
2024-05-09T11:33:21.159Z,2.20
2024-05-09T11:34:21.169Z,1.60
2024-05-09T11:35:21.108Z,1.80
2024-05-09T11:36:21.099Z,1.50
2024-05-09T11:37:21.147Z,1.50
2024-05-09T11:38:21.115Z,1.80
2024-05-09T11:39:21.180Z,6.10
2024-05-09T11:40:25.639Z,4.20
2024-05-09T11:41:21.036Z,1.50
2024-05-09T11:42:21.007Z,1.30
2024-05-09T11:43:21.341Z,2.90
2024-05-09T11:44:21.029Z,4.20
2024-05-09T11:45:21.121Z,1.20
2024-05-09T11:46:21.061Z,1.80
2024-05-09T11:47:21.077Z,2.20
2024-05-09T11:48:21.125Z,1.90
2024-05-09T11:49:23.128Z,2.00
2024-05-09T11:50:27.203Z,2.30
2024-05-09T11:51:20.889Z,4.40
2024-05-09T11:52:20.939Z,2.50
2024-05-09T11:53:20.939Z,2.70
2024-05-09T11:54:20.839Z,2.00
2024-05-09T11:55:22.050Z,1.40
2024-05-09T11:56:20.850Z,1.70
2024-05-09T11:57:20.811Z,1.50
2024-05-09T11:58:20.981Z,4.40
2024-05-09T11:59:20.789Z,1.30
2024-05-09T12:00:29.244Z,1.60
2024-05-09T12:01:22.033Z,2.50
2024-05-09T12:02:20.888Z,1.40
2024-05-09T12:03:20.835Z,4.70
2024-05-09T12:04:20.883Z,2.40
2024-05-09T12:05:21.102Z,2.50
2024-05-09T12:06:20.699Z,1.70
2024-05-09T12:07:20.745Z,2.00
2024-05-09T12:08:20.688Z,2.00
2024-05-09T12:09:20.693Z,1.90
2024-05-09T12:10:26.040Z,1.70
2024-05-09T12:11:20.689Z,4.70
2024-05-09T12:12:20.627Z,1.50
2024-05-09T12:13:20.693Z,1.90
2024-05-09T12:14:20.651Z,1.50
2024-05-09T12:15:20.582Z,1.40
2024-05-09T12:16:20.805Z,3.50
2024-05-09T12:17:20.804Z,2.50
2024-05-09T12:18:20.571Z,1.40
2024-05-09T12:19:20.667Z,2.90
2024-05-09T12:20:28.569Z,2.30
2024-05-09T12:21:20.506Z,2.20
2024-05-09T12:22:20.530Z,2.80
2024-05-09T12:23:20.498Z,2.10
2024-05-09T12:24:20.499Z,2.00
2024-05-09T12:25:20.532Z,2.10
2024-05-09T12:26:20.572Z,2.20
2024-05-09T12:27:20.430Z,2.80
2024-05-09T12:28:20.470Z,4.10
2024-05-09T12:29:20.426Z,2.80
2024-05-09T12:30:32.263Z,4.20
2024-05-09T12:31:20.435Z,2.10
2024-05-09T12:32:20.445Z,2.10
2024-05-09T12:33:20.617Z,8.10
2024-05-09T12:34:20.394Z,1.40
2024-05-09T12:35:20.388Z,2.50
2024-05-09T12:36:20.364Z,2.00
2024-05-09T12:37:20.407Z,2.10
2024-05-09T12:38:20.290Z,2.20
2024-05-09T12:39:20.285Z,5.20
2024-05-09T12:40:26.856Z,3.80
2024-05-09T12:41:20.247Z,4.80
2024-05-09T12:42:27.140Z,8.00
2024-05-09T12:43:20.289Z,5.50
2024-05-09T12:44:20.236Z,3.60
2024-05-09T12:45:20.197Z,2.10
2024-05-09T12:46:20.306Z,4.00
2024-05-09T12:47:20.282Z,1.80
2024-05-09T12:48:20.277Z,2.70
2024-05-09T12:49:20.613Z,1.80
2024-05-09T12:50:29.127Z,1.80
2024-05-09T12:51:20.127Z,2.00
2024-05-09T12:52:20.263Z,2.90
2024-05-09T12:53:20.142Z,1.90
2024-05-09T12:54:20.077Z,1.90
2024-05-09T12:55:20.132Z,2.50
2024-05-09T12:56:20.135Z,7.00
2024-05-09T12:57:20.051Z,2.50
2024-05-09T12:58:20.112Z,4.30
2024-05-09T12:59:20.010Z,2.10
2024-05-09T13:00:27.407Z,2.10
2024-05-09T13:01:20.058Z,1.80
2024-05-09T13:02:20.154Z,1.30
2024-05-09T13:03:20.412Z,3.10
2024-05-09T13:04:20.129Z,5.20
2024-05-09T13:05:20.053Z,3.20
2024-05-09T13:06:19.950Z,1.70
2024-05-09T13:07:20.010Z,1.40
2024-05-09T13:08:19.932Z,2.50